sensor_id;sensor_type;location;lat;lon;timestamp;pressure;altitude;pressure_sealevel;temperature;humidity
59055;BME280;44845;51.444;7.460;2023-03-31T00:01:32;98698.47;;;11.03;75.54
59055;BME280;44845;51.444;7.460;2023-03-31T00:03:58;98697.47;;;11.07;75.10
59055;BME280;44845;51.444;7.460;2023-03-31T00:06:35;98695.00;;;11.02;75.30
59055;BME280;44845;51.444;7.460;2023-03-31T00:09:03;98685.31;;;11.04;74.87
59055;BME280;44845;51.444;7.460;2023-03-31T00:11:29;98682.91;;;10.97;75.20
59055;BME280;44845;51.444;7.460;2023-03-31T00:13:54;98677.66;;;10.97;75.12
59055;BME280;44845;51.444;7.460;2023-03-31T00:16:20;98673.47;;;10.89;75.27
59055;BME280;44845;51.444;7.460;2023-03-31T00:18:45;98667.41;;;10.87;75.37
59055;BME280;44845;51.444;7.460;2023-03-31T00:21:23;98665.63;;;10.89;75.36
59055;BME280;44845;51.444;7.460;2023-03-31T00:23:51;98662.25;;;10.84;75.41
59055;BME280;44845;51.444;7.460;2023-03-31T00:26:17;98657.88;;;10.85;75.49
59055;BME280;44845;51.444;7.460;2023-03-31T00:28:42;98650.06;;;10.83;75.68
59055;BME280;44845;51.444;7.460;2023-03-31T00:31:07;98657.19;;;10.78;75.74
59055;BME280;44845;51.444;7.460;2023-03-31T00:33:33;98634.59;;;10.74;75.69
59055;BME280;44845;51.444;7.460;2023-03-31T00:35:58;98634.47;;;10.77;75.48
59055;BME280;44845;51.444;7.460;2023-03-31T00:38:27;98631.91;;;10.75;75.85
59055;BME280;44845;51.444;7.460;2023-03-31T00:40:54;98630.16;;;10.76;75.75
59055;BME280;44845;51.444;7.460;2023-03-31T00:43:28;98628.41;;;10.76;75.81
59055;BME280;44845;51.444;7.460;2023-03-31T00:48:26;98616.31;;;10.70;75.91
59055;BME280;44845;51.444;7.460;2023-03-31T00:50:56;98606.69;;;10.71;76.02
59055;BME280;44845;51.444;7.460;2023-03-31T00:53:26;98598.84;;;10.69;76.07
59055;BME280;44845;51.444;7.460;2023-03-31T00:55:55;98602.56;;;10.62;75.94
59055;BME280;44845;51.444;7.460;2023-03-31T00:58:23;98603.47;;;10.61;75.75
59055;BME280;44845;51.444;7.460;2023-03-31T01:00:53;98604.22;;;10.65;76.16
59055;BME280;44845;51.444;7.460;2023-03-31T01:03:20;98598.13;;;10.64;76.14
59055;BME280;44845;51.444;7.460;2023-03-31T01:05:54;98594.53;;;10.68;76.02
59055;BME280;44845;51.444;7.460;2023-03-31T01:08:24;98594.69;;;10.62;76.04
59055;BME280;44845;51.444;7.460;2023-03-31T01:10:53;98588.63;;;10.60;76.04
59055;BME280;44845;51.444;7.460;2023-03-31T01:13:20;98593.75;;;10.65;76.06
59055;BME280;44845;51.444;7.460;2023-03-31T01:15:47;98587.63;;;10.64;75.59
59055;BME280;44845;51.444;7.460;2023-03-31T01:18:13;98583.19;;;10.68;76.21
59055;BME280;44845;51.444;7.460;2023-03-31T01:26:44;98552.50;;;10.72;78.14
59055;BME280;44845;51.444;7.460;2023-03-31T01:40:56;98521.91;;;10.70;79.18
59055;BME280;44845;51.444;7.460;2023-03-31T01:43:34;98515.94;;;10.65;79.49
59055;BME280;44845;51.444;7.460;2023-03-31T01:46:12;98500.56;;;10.54;80.03
59055;BME280;44845;51.444;7.460;2023-03-31T01:48:57;98497.66;;;10.64;79.79
59055;BME280;44845;51.444;7.460;2023-03-31T01:51:47;98493.25;;;10.64;79.72
59055;BME280;44845;51.444;7.460;2023-03-31T01:59:51;98484.69;;;10.59;80.10
59055;BME280;44845;51.444;7.460;2023-03-31T02:02:28;98476.84;;;10.57;80.11
59055;BME280;44845;51.444;7.460;2023-03-31T02:05:01;98470.66;;;10.60;80.12
59055;BME280;44845;51.444;7.460;2023-03-31T02:07:36;98462.75;;;10.62;79.76
59055;BME280;44845;51.444;7.460;2023-03-31T02:10:08;98453.22;;;10.59;79.48
59055;BME280;44845;51.444;7.460;2023-03-31T02:12:35;98462.88;;;10.57;79.80
59055;BME280;44845;51.444;7.460;2023-03-31T02:15:04;98456.00;;;10.54;79.59
59055;BME280;44845;51.444;7.460;2023-03-31T02:17:32;98454.19;;;10.56;79.65
59055;BME280;44845;51.444;7.460;2023-03-31T02:20:04;98445.44;;;10.56;79.74
59055;BME280;44845;51.444;7.460;2023-03-31T02:22:35;98440.16;;;10.57;79.72
59055;BME280;44845;51.444;7.460;2023-03-31T02:25:02;98428.91;;;10.54;79.82
59055;BME280;44845;51.444;7.460;2023-03-31T02:27:32;98434.09;;;10.55;79.63
59055;BME280;44845;51.444;7.460;2023-03-31T02:29:59;98430.53;;;10.58;79.63
59055;BME280;44845;51.444;7.460;2023-03-31T02:32:37;98420.91;;;10.58;79.95
59055;BME280;44845;51.444;7.460;2023-03-31T02:35:04;98416.63;;;10.56;79.72
59055;BME280;44845;51.444;7.460;2023-03-31T02:37:30;98414.81;;;10.58;79.83
59055;BME280;44845;51.444;7.460;2023-03-31T02:39:58;98417.69;;;10.48;80.04
59055;BME280;44845;51.444;7.460;2023-03-31T02:42:25;98402.78;;;10.51;79.78
59055;BME280;44845;51.444;7.460;2023-03-31T02:44:50;98407.81;;;10.57;80.04
59055;BME280;44845;51.444;7.460;2023-03-31T02:47:18;98409.47;;;10.61;79.99
59055;BME280;44845;51.444;7.460;2023-03-31T02:49:48;98398.22;;;10.57;80.23
59055;BME280;44845;51.444;7.460;2023-03-31T02:55:10;98382.59;;;10.54;80.38
59055;BME280;44845;51.444;7.460;2023-03-31T03:03:28;98356.41;;;10.53;80.83
59055;BME280;44845;51.444;7.460;2023-03-31T03:14:38;98320.69;;;10.48;81.13
59055;BME280;44845;51.444;7.460;2023-03-31T03:19:41;98294.59;;;10.45;81.41
59055;BME280;44845;51.444;7.460;2023-03-31T03:22:07;98294.50;;;10.48;81.28
59055;BME280;44845;51.444;7.460;2023-03-31T03:24:33;98297.00;;;10.53;81.18
59055;BME280;44845;51.444;7.460;2023-03-31T03:26:59;98293.50;;;10.53;81.05
59055;BME280;44845;51.444;7.460;2023-03-31T03:29:25;98294.50;;;10.48;81.32
59055;BME280;44845;51.444;7.460;2023-03-31T03:31:51;98283.00;;;10.54;81.02
59055;BME280;44845;51.444;7.460;2023-03-31T03:34:16;98275.06;;;10.56;81.06
59055;BME280;44845;51.444;7.460;2023-03-31T03:36:43;98269.72;;;10.59;80.87
59055;BME280;44845;51.444;7.460;2023-03-31T03:39:08;98265.53;;;10.53;81.14
59055;BME280;44845;51.444;7.460;2023-03-31T03:41:33;98247.13;;;10.55;80.93
59055;BME280;44845;51.444;7.460;2023-03-31T03:43:59;98240.19;;;10.54;81.16
59055;BME280;44845;51.444;7.460;2023-03-31T03:46:25;98243.72;;;10.53;80.82
59055;BME280;44845;51.444;7.460;2023-03-31T03:48:51;98236.69;;;10.53;81.02
59055;BME280;44845;51.444;7.460;2023-03-31T03:51:16;98229.63;;;10.55;80.93
59055;BME280;44845;51.444;7.460;2023-03-31T03:53:42;98228.03;;;10.50;81.02
59055;BME280;44845;51.444;7.460;2023-03-31T03:56:07;98209.59;;;10.54;80.92
59055;BME280;44845;51.444;7.460;2023-03-31T03:58:33;98213.34;;;10.45;81.03
59055;BME280;44845;51.444;7.460;2023-03-31T04:00:58;98209.13;;;10.41;81.18
59055;BME280;44845;51.444;7.460;2023-03-31T04:03:23;98214.25;;;10.44;80.76
59055;BME280;44845;51.444;7.460;2023-03-31T04:05:49;98208.91;;;10.47;80.83
59055;BME280;44845;51.444;7.460;2023-03-31T04:08:15;98208.00;;;10.48;80.86
59055;BME280;44845;51.444;7.460;2023-03-31T04:10:45;98194.91;;;10.48;80.89
59055;BME280;44845;51.444;7.460;2023-03-31T04:13:12;98177.56;;;10.44;80.68
59055;BME280;44845;51.444;7.460;2023-03-31T04:15:37;98174.75;;;10.51;80.58
59055;BME280;44845;51.444;7.460;2023-03-31T04:18:03;98174.69;;;10.52;80.66
59055;BME280;44845;51.444;7.460;2023-03-31T04:20:28;98173.00;;;10.51;80.12
59055;BME280;44845;51.444;7.460;2023-03-31T04:22:54;98158.13;;;10.50;80.39
59055;BME280;44845;51.444;7.460;2023-03-31T04:25:20;98158.19;;;10.48;80.37
59055;BME280;44845;51.444;7.460;2023-03-31T04:27:48;98154.66;;;10.50;80.41
59055;BME280;44845;51.444;7.460;2023-03-31T04:30:20;98152.75;;;10.55;80.01
59055;BME280;44845;51.444;7.460;2023-03-31T04:32:54;98146.72;;;10.53;80.30
59055;BME280;44845;51.444;7.460;2023-03-31T04:35:21;98142.47;;;10.48;80.36
59055;BME280;44845;51.444;7.460;2023-03-31T04:37:48;98148.53;;;10.51;80.48
59055;BME280;44845;51.444;7.460;2023-03-31T04:40:14;98141.72;;;10.45;80.16
59055;BME280;44845;51.444;7.460;2023-03-31T04:42:40;98143.31;;;10.51;80.30
59055;BME280;44845;51.444;7.460;2023-03-31T04:45:06;98127.63;;;10.49;80.58
59055;BME280;44845;51.444;7.460;2023-03-31T04:47:32;98120.13;;;10.38;80.33
59055;BME280;44845;51.444;7.460;2023-03-31T04:49:57;98120.00;;;10.41;80.42
59055;BME280;44845;51.444;7.460;2023-03-31T04:52:22;98126.91;;;10.44;80.38
59055;BME280;44845;51.444;7.460;2023-03-31T04:54:48;98124.13;;;10.48;80.38
59055;BME280;44845;51.444;7.460;2023-03-31T04:57:13;98124.47;;;10.39;80.81
59055;BME280;44845;51.444;7.460;2023-03-31T04:59:38;98120.88;;;10.42;80.33
59055;BME280;44845;51.444;7.460;2023-03-31T05:02:04;98113.19;;;10.37;80.54
59055;BME280;44845;51.444;7.460;2023-03-31T05:04:29;98109.63;;;10.38;80.46
59055;BME280;44845;51.444;7.460;2023-03-31T05:06:54;98114.81;;;10.40;80.50
59055;BME280;44845;51.444;7.460;2023-03-31T05:09:20;98111.47;;;10.36;80.73
59055;BME280;44845;51.444;7.460;2023-03-31T05:11:46;98100.97;;;10.36;81.23
59055;BME280;44845;51.444;7.460;2023-03-31T05:14:11;98096.44;;;10.41;80.90
59055;BME280;44845;51.444;7.460;2023-03-31T05:16:36;98078.97;;;10.40;81.31
59055;BME280;44845;51.444;7.460;2023-03-31T05:19:02;98064.28;;;10.36;81.23
59055;BME280;44845;51.444;7.460;2023-03-31T05:21:27;98063.69;;;10.28;81.07
59055;BME280;44845;51.444;7.460;2023-03-31T05:23:54;98060.78;;;10.37;81.06
59055;BME280;44845;51.444;7.460;2023-03-31T05:26:20;98048.50;;;10.38;81.14
59055;BME280;44845;51.444;7.460;2023-03-31T05:28:50;98045.25;;;10.31;81.11
59055;BME280;44845;51.444;7.460;2023-03-31T05:31:16;98034.88;;;10.28;81.29
59055;BME280;44845;51.444;7.460;2023-03-31T05:33:42;98031.25;;;10.32;81.54
59055;BME280;44845;51.444;7.460;2023-03-31T05:36:09;98016.50;;;10.29;81.67
59055;BME280;44845;51.444;7.460;2023-03-31T05:38:35;98008.47;;;10.34;81.18
59055;BME280;44845;51.444;7.460;2023-03-31T05:41:00;98005.88;;;10.32;81.21
59055;BME280;44845;51.444;7.460;2023-03-31T05:43:26;97991.25;;;10.27;81.47
59055;BME280;44845;51.444;7.460;2023-03-31T05:45:51;97987.97;;;10.21;80.69
59055;BME280;44845;51.444;7.460;2023-03-31T05:48:16;97971.34;;;10.22;80.62
59055;BME280;44845;51.444;7.460;2023-03-31T05:50:42;97980.88;;;10.23;80.92
59055;BME280;44845;51.444;7.460;2023-03-31T05:53:08;97969.28;;;10.31;80.90
59055;BME280;44845;51.444;7.460;2023-03-31T05:55:37;97967.84;;;10.22;81.17
59055;BME280;44845;51.444;7.460;2023-03-31T05:58:03;97954.69;;;10.23;80.94
59055;BME280;44845;51.444;7.460;2023-03-31T06:00:28;97968.53;;;10.27;80.52
59055;BME280;44845;51.444;7.460;2023-03-31T06:02:54;97951.19;;;10.24;80.46
59055;BME280;44845;51.444;7.460;2023-03-31T06:05:19;97948.41;;;10.28;80.47
59055;BME280;44845;51.444;7.460;2023-03-31T06:07:44;97951.91;;;10.28;80.52
59055;BME280;44845;51.444;7.460;2023-03-31T06:10:10;97948.31;;;10.31;80.63
59055;BME280;44845;51.444;7.460;2023-03-31T06:12:35;97952.50;;;10.35;80.49
59055;BME280;44845;51.444;7.460;2023-03-31T06:15:02;97942.38;;;10.25;80.48
59055;BME280;44845;51.444;7.460;2023-03-31T06:17:27;97940.69;;;10.24;80.40
59055;BME280;44845;51.444;7.460;2023-03-31T06:19:53;97935.66;;;10.18;80.19
59055;BME280;44845;51.444;7.460;2023-03-31T06:22:18;97930.06;;;10.28;80.45
59055;BME280;44845;51.444;7.460;2023-03-31T06:24:44;97931.56;;;10.35;80.30
59055;BME280;44845;51.444;7.460;2023-03-31T06:27:09;97920.19;;;10.36;80.18
59055;BME280;44845;51.444;7.460;2023-03-31T06:29:34;97923.03;;;10.30;80.15
59055;BME280;44845;51.444;7.460;2023-03-31T06:32:00;97924.84;;;10.28;79.37
59055;BME280;44845;51.444;7.460;2023-03-31T06:34:25;97926.91;;;10.19;79.42
59055;BME280;44845;51.444;7.460;2023-03-31T06:36:51;97914.34;;;10.28;79.48
59055;BME280;44845;51.444;7.460;2023-03-31T06:39:17;97927.69;;;10.21;80.29
59055;BME280;44845;51.444;7.460;2023-03-31T06:41:43;97914.50;;;10.24;80.10
59055;BME280;44845;51.444;7.460;2023-03-31T06:44:08;97913.72;;;10.22;80.74
59055;BME280;44845;51.444;7.460;2023-03-31T06:46:33;97918.81;;;10.25;80.74
59055;BME280;44845;51.444;7.460;2023-03-31T06:48:59;97902.09;;;10.30;80.47
59055;BME280;44845;51.444;7.460;2023-03-31T06:51:24;97904.13;;;10.21;80.66
59055;BME280;44845;51.444;7.460;2023-03-31T06:53:50;97905.00;;;10.22;80.41
59055;BME280;44845;51.444;7.460;2023-03-31T06:56:15;97895.84;;;10.32;80.59
59055;BME280;44845;51.444;7.460;2023-03-31T06:58:40;97889.78;;;10.32;80.50
59055;BME280;44845;51.444;7.460;2023-03-31T07:01:06;97892.56;;;10.27;80.54
59055;BME280;44845;51.444;7.460;2023-03-31T07:03:32;97891.47;;;10.33;80.62
59055;BME280;44845;51.444;7.460;2023-03-31T07:05:58;97899.31;;;10.33;80.21
59055;BME280;44845;51.444;7.460;2023-03-31T07:08:23;97896.59;;;10.36;80.54
59055;BME280;44845;51.444;7.460;2023-03-31T07:10:54;97894.44;;;10.23;80.28
59055;BME280;44845;51.444;7.460;2023-03-31T07:13:20;97894.38;;;10.25;80.75
59055;BME280;44845;51.444;7.460;2023-03-31T07:15:48;97901.22;;;10.29;80.78
59055;BME280;44845;51.444;7.460;2023-03-31T07:18:14;97898.78;;;10.24;80.92
59055;BME280;44845;51.444;7.460;2023-03-31T07:20:41;97893.41;;;10.28;80.94
59055;BME280;44845;51.444;7.460;2023-03-31T07:23:06;97897.75;;;10.29;80.74
59055;BME280;44845;51.444;7.460;2023-03-31T07:25:33;97899.28;;;10.34;80.83
59055;BME280;44845;51.444;7.460;2023-03-31T07:27:58;97895.69;;;10.37;80.92
59055;BME280;44845;51.444;7.460;2023-03-31T07:30:23;97888.91;;;10.31;80.96
59055;BME280;44845;51.444;7.460;2023-03-31T07:32:50;97895.81;;;10.34;81.12
59055;BME280;44845;51.444;7.460;2023-03-31T07:35:16;97882.09;;;10.27;80.62
59055;BME280;44845;51.444;7.460;2023-03-31T07:37:43;97887.16;;;10.32;81.17
59055;BME280;44845;51.444;7.460;2023-03-31T07:40:12;97874.22;;;10.27;80.75
59055;BME280;44845;51.444;7.460;2023-03-31T07:42:37;97880.47;;;10.23;80.99
59055;BME280;44845;51.444;7.460;2023-03-31T07:45:03;97882.13;;;10.25;81.24
59055;BME280;44845;51.444;7.460;2023-03-31T07:47:30;97873.31;;;10.28;81.03
59055;BME280;44845;51.444;7.460;2023-03-31T07:49:56;97882.88;;;10.29;81.10
59055;BME280;44845;51.444;7.460;2023-03-31T07:52:21;97873.41;;;10.25;81.02
59055;BME280;44845;51.444;7.460;2023-03-31T07:54:47;97872.16;;;10.35;80.99
59055;BME280;44845;51.444;7.460;2023-03-31T07:57:13;97873.69;;;10.41;81.12
59055;BME280;44845;51.444;7.460;2023-03-31T07:59:41;97868.56;;;10.38;80.76
59055;BME280;44845;51.444;7.460;2023-03-31T08:02:06;97863.31;;;10.38;80.68
59055;BME280;44845;51.444;7.460;2023-03-31T08:04:31;97847.50;;;10.41;80.57
59055;BME280;44845;51.444;7.460;2023-03-31T08:06:57;97857.38;;;10.34;80.99
59055;BME280;44845;51.444;7.460;2023-03-31T08:09:22;97852.72;;;10.41;81.04
59055;BME280;44845;51.444;7.460;2023-03-31T08:11:48;97848.34;;;10.42;80.52
59055;BME280;44845;51.444;7.460;2023-03-31T08:14:14;97847.22;;;10.47;80.34
59055;BME280;44845;51.444;7.460;2023-03-31T08:16:39;97843.63;;;10.52;80.42
59055;BME280;44845;51.444;7.460;2023-03-31T08:19:05;97850.63;;;10.50;80.66
59055;BME280;44845;51.444;7.460;2023-03-31T08:21:30;97847.81;;;10.56;80.65
59055;BME280;44845;51.444;7.460;2023-03-31T08:23:56;97841.91;;;10.73;80.51
59055;BME280;44845;51.444;7.460;2023-03-31T08:26:22;97841.50;;;10.83;80.19
59055;BME280;44845;51.444;7.460;2023-03-31T08:28:49;97827.03;;;10.74;80.12
59055;BME280;44845;51.444;7.460;2023-03-31T08:31:16;97836.16;;;10.86;79.98
59055;BME280;44845;51.444;7.460;2023-03-31T08:33:46;97825.47;;;10.90;79.92
59055;BME280;44845;51.444;7.460;2023-03-31T08:36:11;97826.25;;;10.92;79.99
59055;BME280;44845;51.444;7.460;2023-03-31T08:38:39;97834.91;;;10.95;80.31
59055;BME280;44845;51.444;7.460;2023-03-31T08:43:55;97817.47;;;10.94;80.15
59055;BME280;44845;51.444;7.460;2023-03-31T08:46:21;97813.88;;;11.17;85.50
59055;BME280;44845;51.444;7.460;2023-03-31T08:48:51;97830.63;;;11.34;81.63
59055;BME280;44845;51.444;7.460;2023-03-31T08:51:21;97813.72;;;11.60;80.92
59055;BME280;44845;51.444;7.460;2023-03-31T08:53:59;97805.31;;;11.73;77.93
59055;BME280;44845;51.444;7.460;2023-03-31T08:56:29;97811.72;;;11.87;78.14
59055;BME280;44845;51.444;7.460;2023-03-31T08:58:56;97812.06;;;11.98;77.07
59055;BME280;44845;51.444;7.460;2023-03-31T09:01:41;97807.16;;;12.10;76.38
59055;BME280;44845;51.444;7.460;2023-03-31T09:13:33;97805.28;;;12.50;74.60
59055;BME280;44845;51.444;7.460;2023-03-31T09:15:42;97793.94;;;12.31;75.37
59055;BME280;44845;51.444;7.460;2023-03-31T09:18:23;97808.69;;;12.15;76.03
59055;BME280;44845;51.444;7.460;2023-03-31T09:20:52;97795.88;;;12.08;76.72
59055;BME280;44845;51.444;7.460;2023-03-31T09:23:32;97793.66;;;11.98;77.62
59055;BME280;44845;51.444;7.460;2023-03-31T09:26:02;97789.97;;;12.02;76.98
59055;BME280;44845;51.444;7.460;2023-03-31T09:28:37;97790.75;;;12.04;78.30
59055;BME280;44845;51.444;7.460;2023-03-31T09:31:16;97798.00;;;11.99;78.22
59055;BME280;44845;51.444;7.460;2023-03-31T09:33:44;97787.28;;;12.04;77.73
59055;BME280;44845;51.444;7.460;2023-03-31T09:36:18;97792.53;;;12.04;77.76
59055;BME280;44845;51.444;7.460;2023-03-31T09:38:45;97783.03;;;12.01;78.42
59055;BME280;44845;51.444;7.460;2023-03-31T09:41:13;97788.28;;;12.01;78.72
59055;BME280;44845;51.444;7.460;2023-03-31T09:43:40;97782.03;;;12.04;79.04
59055;BME280;44845;51.444;7.460;2023-03-31T09:46:16;97782.81;;;12.06;78.14
59055;BME280;44845;51.444;7.460;2023-03-31T09:48:50;97779.03;;;12.12;78.14
59055;BME280;44845;51.444;7.460;2023-03-31T09:51:29;97773.94;;;12.09;78.79
59055;BME280;44845;51.444;7.460;2023-03-31T09:54:19;97765.09;;;12.10;77.63
59055;BME280;44845;51.444;7.460;2023-03-31T09:56:49;97760.03;;;12.07;78.37
59055;BME280;44845;51.444;7.460;2023-03-31T09:59:22;97765.41;;;12.03;77.87
59055;BME280;44845;51.444;7.460;2023-03-31T10:01:57;97759.38;;;12.01;78.63
59055;BME280;44845;51.444;7.460;2023-03-31T10:04:24;97761.25;;;11.99;78.35
59055;BME280;44845;51.444;7.460;2023-03-31T10:06:52;97753.28;;;12.01;78.54
59055;BME280;44845;51.444;7.460;2023-03-31T10:09:20;97751.72;;;11.97;78.31
59055;BME280;44845;51.444;7.460;2023-03-31T10:12:07;97757.97;;;11.94;78.90
59055;BME280;44845;51.444;7.460;2023-03-31T10:14:43;97752.31;;;11.84;79.07
59055;BME280;44845;51.444;7.460;2023-03-31T10:17:13;97751.88;;;11.93;78.70
59055;BME280;44845;51.444;7.460;2023-03-31T10:19:46;97737.88;;;11.93;79.45
59055;BME280;44845;51.444;7.460;2023-03-31T10:22:26;97732.34;;;11.99;79.57
59055;BME280;44845;51.444;7.460;2023-03-31T10:24:52;97731.03;;;12.08;79.21
59055;BME280;44845;51.444;7.460;2023-03-31T10:27:29;97728.28;;;12.11;79.47
59055;BME280;44845;51.444;7.460;2023-03-31T10:29:57;97717.56;;;12.16;79.08
59055;BME280;44845;51.444;7.460;2023-03-31T10:32:28;97713.00;;;12.20;79.78
59055;BME280;44845;51.444;7.460;2023-03-31T10:34:55;97713.84;;;12.20;79.04
59055;BME280;44845;51.444;7.460;2023-03-31T10:37:25;97696.31;;;12.21;78.33
59055;BME280;44845;51.444;7.460;2023-03-31T10:40:42;97699.47;;;12.27;79.23
59055;BME280;44845;51.444;7.460;2023-03-31T10:42:58;97700.34;;;12.28;78.19
59055;BME280;44845;51.444;7.460;2023-03-31T10:45:29;97721.38;;;12.28;79.57
59055;BME280;44845;51.444;7.460;2023-03-31T10:47:58;97735.41;;;12.27;79.79
59055;BME280;44845;51.444;7.460;2023-03-31T10:50:29;97725.50;;;12.14;79.22
59055;BME280;44845;51.444;7.460;2023-03-31T10:53:04;97722.97;;;12.13;80.22
59055;BME280;44845;51.444;7.460;2023-03-31T10:56:00;97719.81;;;12.24;80.31
59055;BME280;44845;51.444;7.460;2023-03-31T11:01:32;97711.13;;;12.22;78.39
59055;BME280;44845;51.444;7.460;2023-03-31T11:04:36;97708.13;;;12.30;79.51
59055;BME280;44845;51.444;7.460;2023-03-31T11:07:39;97700.75;;;12.38;78.63
59055;BME280;44845;51.444;7.460;2023-03-31T11:12:58;97690.06;;;12.41;78.44
59055;BME280;44845;51.444;7.460;2023-03-31T11:15:39;97685.34;;;12.48;78.35
59055;BME280;44845;51.444;7.460;2023-03-31T11:23:41;97682.94;;;12.61;78.75
59055;BME280;44845;51.444;7.460;2023-03-31T11:26:18;97678.28;;;12.66;76.64
59055;BME280;44845;51.444;7.460;2023-03-31T11:31:49;97663.59;;;12.80;77.77
59055;BME280;44845;51.444;7.460;2023-03-31T11:34:38;97656.78;;;12.76;76.10
59055;BME280;44845;51.444;7.460;2023-03-31T11:37:24;97670.47;;;12.82;76.65
59055;BME280;44845;51.444;7.460;2023-03-31T11:42:59;97738.31;;;12.58;78.45
59055;BME280;44845;51.444;7.460;2023-03-31T11:46:12;97733.66;;;12.27;77.22
59055;BME280;44845;51.444;7.460;2023-03-31T11:48:56;97734.16;;;11.97;77.67
59055;BME280;44845;51.444;7.460;2023-03-31T11:51:44;97732.53;;;11.94;77.43
59055;BME280;44845;51.444;7.460;2023-03-31T11:57:22;97727.38;;;11.74;78.44
59055;BME280;44845;51.444;7.460;2023-03-31T12:00:04;97742.28;;;11.73;78.66
59055;BME280;44845;51.444;7.460;2023-03-31T12:02:50;97742.28;;;11.73;78.60
59055;BME280;44845;51.444;7.460;2023-03-31T12:05:18;97733.63;;;11.71;78.99
59055;BME280;44845;51.444;7.460;2023-03-31T12:07:51;97722.34;;;11.69;79.14
59055;BME280;44845;51.444;7.460;2023-03-31T12:10:35;97716.81;;;11.75;79.05
59055;BME280;44845;51.444;7.460;2023-03-31T12:15:40;97714.59;;;11.85;78.21
59055;BME280;44845;51.444;7.460;2023-03-31T12:18:17;97707.97;;;11.96;78.77
59055;BME280;44845;51.444;7.460;2023-03-31T12:20:49;97704.44;;;11.97;79.23
59055;BME280;44845;51.444;7.460;2023-03-31T12:23:19;97698.78;;;12.04;79.55
59055;BME280;44845;51.444;7.460;2023-03-31T12:26:01;97691.44;;;12.13;79.60
59055;BME280;44845;51.444;7.460;2023-03-31T12:28:31;97695.47;;;12.20;79.53
59055;BME280;44845;51.444;7.460;2023-03-31T12:31:00;97679.78;;;12.19;78.70
59055;BME280;44845;51.444;7.460;2023-03-31T12:33:30;97680.19;;;12.29;77.73
59055;BME280;44845;51.444;7.460;2023-03-31T12:39:05;97675.75;;;12.29;78.57
59055;BME280;44845;51.444;7.460;2023-03-31T12:41:57;97673.38;;;12.42;79.02
59055;BME280;44845;51.444;7.460;2023-03-31T12:54:08;97680.31;;;12.61;77.91
59055;BME280;44845;51.444;7.460;2023-03-31T12:56:13;97678.75;;;12.57;78.10
59055;BME280;44845;51.444;7.460;2023-03-31T12:58:41;97684.16;;;12.54;77.58
59055;BME280;44845;51.444;7.460;2023-03-31T13:01:10;97681.53;;;12.54;78.56
59055;BME280;44845;51.444;7.460;2023-03-31T13:03:40;97680.63;;;12.55;79.22
59055;BME280;44845;51.444;7.460;2023-03-31T13:06:44;97684.41;;;12.49;78.46
59055;BME280;44845;51.444;7.460;2023-03-31T13:08:59;97682.50;;;12.53;79.23
59055;BME280;44845;51.444;7.460;2023-03-31T13:16:48;97669.81;;;12.25;77.43
59055;BME280;44845;51.444;7.460;2023-03-31T13:21:58;97667.28;;;12.24;77.62
59055;BME280;44845;51.444;7.460;2023-03-31T13:24:24;97662.56;;;12.31;77.70
59055;BME280;44845;51.444;7.460;2023-03-31T13:26:51;97658.75;;;12.36;77.78
59055;BME280;44845;51.444;7.460;2023-03-31T13:29:18;97662.22;;;12.37;78.61
59055;BME280;44845;51.444;7.460;2023-03-31T13:51:40;97652.34;;;12.42;78.82
59055;BME280;44845;51.444;7.460;2023-03-31T14:00:26;97637.78;;;12.53;79.88
59055;BME280;44845;51.444;7.460;2023-03-31T14:05:59;97629.09;;;12.68;79.94
59055;BME280;44845;51.444;7.460;2023-03-31T14:08:38;97627.06;;;12.73;79.59
59055;BME280;44845;51.444;7.460;2023-03-31T14:11:28;97632.94;;;12.79;80.24
59055;BME280;44845;51.444;7.460;2023-03-31T14:14:11;97625.75;;;12.82;80.76
59055;BME280;44845;51.444;7.460;2023-03-31T14:16:43;97617.94;;;12.81;80.32
59055;BME280;44845;51.444;7.460;2023-03-31T14:19:23;97622.19;;;12.83;79.21
59055;BME280;44845;51.444;7.460;2023-03-31T14:22:22;97618.69;;;12.83;79.16
59055;BME280;44845;51.444;7.460;2023-03-31T14:28:16;97617.09;;;12.80;79.37
59055;BME280;44845;51.444;7.460;2023-03-31T14:33:42;97606.22;;;12.70;79.31
59055;BME280;44845;51.444;7.460;2023-03-31T14:38:36;97602.00;;;12.84;79.83
59055;BME280;44845;51.444;7.460;2023-03-31T14:41:02;97591.47;;;12.84;79.79
59055;BME280;44845;51.444;7.460;2023-03-31T14:43:31;97593.00;;;12.88;78.85
59055;BME280;44845;51.444;7.460;2023-03-31T14:46:05;97590.13;;;12.93;78.99
59055;BME280;44845;51.444;7.460;2023-03-31T14:48:40;97578.78;;;12.92;78.57
59055;BME280;44845;51.444;7.460;2023-03-31T14:51:10;97584.44;;;12.84;78.34
59055;BME280;44845;51.444;7.460;2023-03-31T14:53:35;97584.44;;;12.84;78.47
59055;BME280;44845;51.444;7.460;2023-03-31T14:56:06;97583.06;;;12.77;76.46
59055;BME280;44845;51.444;7.460;2023-03-31T14:58:37;97576.19;;;12.75;75.38
59055;BME280;44845;51.444;7.460;2023-03-31T15:01:05;97579.75;;;12.73;76.62
59055;BME280;44845;51.444;7.460;2023-03-31T15:03:33;97581.19;;;12.79;78.22
59055;BME280;44845;51.444;7.460;2023-03-31T15:06:01;97564.41;;;12.82;76.22
59055;BME280;44845;51.444;7.460;2023-03-31T15:08:28;97564.06;;;12.88;77.29
59055;BME280;44845;51.444;7.460;2023-03-31T15:10:57;97566.38;;;12.94;76.87
59055;BME280;44845;51.444;7.460;2023-03-31T15:13:35;97563.06;;;12.91;75.94
59055;BME280;44845;51.444;7.460;2023-03-31T15:18:44;97562.69;;;12.81;76.46
59055;BME280;44845;51.444;7.460;2023-03-31T15:21:19;97564.41;;;12.82;77.95
59055;BME280;44845;51.444;7.460;2023-03-31T15:23:44;97557.19;;;12.69;75.42
59055;BME280;44845;51.444;7.460;2023-03-31T15:26:11;97553.44;;;12.73;76.24
59055;BME280;44845;51.444;7.460;2023-03-31T15:28:48;97555.16;;;12.75;76.32
59055;BME280;44845;51.444;7.460;2023-03-31T15:31:15;97564.31;;;12.67;75.56
59055;BME280;44845;51.444;7.460;2023-03-31T15:33:41;97565.06;;;12.69;77.15
59055;BME280;44845;51.444;7.460;2023-03-31T15:36:07;97565.97;;;12.68;77.54